createdAt,value
2022-09-06T00:09:19.683Z,55.34
2022-09-06T00:13:29.113Z,55.22
2022-09-06T00:16:58.807Z,55.63
2022-09-06T00:21:00.194Z,55.20
2022-09-06T00:24:36.806Z,55.26
2022-09-06T00:40:40.806Z,55.56
2022-09-06T00:44:30.522Z,55.53
2022-09-06T00:56:26.323Z,55.97
2022-09-06T01:12:19.906Z,56.30
2022-09-06T01:29:07.435Z,56.56
2022-09-06T01:33:19.969Z,56.44
2022-09-06T01:48:22.903Z,56.91
2022-09-06T01:52:03.217Z,56.98
2022-09-06T01:56:24.256Z,57.24
2022-09-06T02:04:53.975Z,57.15
2022-09-06T02:09:03.615Z,57.26
2022-09-06T02:12:20.079Z,57.41
2022-09-06T02:15:47.873Z,57.39
2022-09-06T02:24:31.140Z,57.53
2022-09-06T02:28:32.251Z,57.61
2022-09-06T02:40:58.891Z,57.73
2022-09-06T02:45:01.337Z,57.52
2022-09-06T02:49:00.193Z,57.84
2022-09-06T03:04:33.100Z,57.84
2022-09-06T03:08:22.397Z,57.86
2022-09-06T03:12:14.530Z,58.09
2022-09-06T03:28:18.813Z,58.42
2022-09-06T03:31:42.898Z,58.35
2022-09-06T03:35:53.436Z,58.55
2022-09-06T03:51:13.131Z,58.90
2022-09-06T03:54:32.851Z,59.19
2022-09-06T03:58:11.373Z,59.24
2022-09-06T04:13:05.034Z,59.61
2022-09-06T04:16:11.744Z,59.47
2022-09-06T04:19:56.473Z,59.52
2022-09-06T04:22:49.571Z,59.52
2022-09-06T04:25:51.773Z,59.93
2022-09-06T04:29:53.484Z,59.97
2022-09-06T04:33:25.898Z,60.29
2022-09-06T04:37:24.796Z,59.99
2022-09-06T04:40:29.283Z,60.29
2022-09-06T04:52:01.444Z,60.32
2022-09-06T04:55:37.255Z,60.53
2022-09-06T04:59:08.936Z,60.46
2022-09-06T05:10:52.100Z,60.61
2022-09-06T05:27:57.169Z,60.31
2022-09-06T05:30:52.987Z,59.94
2022-09-06T05:34:23.722Z,59.46
2022-09-06T05:38:33.412Z,59.08
2022-09-06T05:53:15.617Z,58.32
2022-09-06T05:57:26.579Z,57.85
2022-09-06T06:11:48.916Z,56.96
2022-09-06T06:14:44.569Z,57.06
2022-09-06T06:18:03.312Z,56.32
2022-09-06T06:21:28.679Z,56.65
2022-09-06T06:24:59.566Z,56.88
2022-09-06T06:28:51.728Z,57.26
2022-09-06T06:32:41.826Z,57.33
2022-09-06T06:47:05.895Z,57.70
2022-09-06T06:50:17.893Z,57.78
2022-09-06T06:54:10.732Z,57.54
2022-09-06T06:58:02.206Z,57.64
2022-09-06T07:09:16.903Z,57.57
2022-09-06T07:13:07.792Z,56.97
2022-09-06T07:35:13.013Z,55.75
2022-09-06T07:38:36.426Z,55.16
2022-09-06T07:41:54.718Z,54.38
2022-09-06T07:44:29.201Z,54.78
2022-09-06T08:04:41.201Z,53.50
2022-09-06T08:07:40.881Z,53.71
2022-09-06T08:10:42.288Z,53.50
2022-09-06T08:13:26.462Z,52.48
2022-09-06T08:16:22.891Z,52.31
2022-09-06T08:19:30.929Z,51.74
2022-09-06T08:22:18.269Z,50.78
2022-09-06T08:24:50.676Z,50.92
2022-09-06T08:28:06.068Z,51.82
2022-09-06T08:31:25.423Z,51.71
2022-09-06T08:34:39.187Z,51.56
2022-09-06T08:48:48.207Z,48.41
2022-09-06T08:52:09.684Z,48.20
2022-09-06T08:55:26.586Z,46.85
2022-09-06T08:59:20.062Z,47.35
2022-09-06T09:16:54.588Z,45.66
2022-09-06T09:20:08.778Z,45.44
2022-09-06T09:23:38.324Z,45.33
2022-09-06T09:27:24.855Z,44.41
2022-09-06T09:31:32.483Z,44.70
2022-09-06T09:35:01.390Z,45.29
2022-09-06T09:46:32.471Z,44.37
2022-09-06T09:49:13.041Z,44.90
2022-09-06T09:52:24.304Z,43.63
2022-09-06T09:55:42.479Z,44.73
2022-09-06T09:58:56.066Z,43.92
2022-09-06T10:22:06.621Z,44.87
2022-09-06T10:25:43.036Z,44.58
2022-09-06T10:29:19.327Z,44.60
2022-09-06T10:32:31.073Z,44.42
2022-09-06T10:48:14.874Z,44.88
2022-09-06T10:51:26.529Z,45.27
2022-09-06T10:55:06.574Z,45.19
2022-09-06T11:00:58.705Z,44.60
2022-09-06T11:04:12.474Z,44.21
2022-09-06T11:29:52.443Z,43.61
2022-09-06T11:33:41.951Z,44.18
2022-09-06T11:37:02.221Z,43.95
2022-09-06T11:43:56.827Z,44.24
2022-09-06T11:59:18.715Z,43.58
2022-09-06T12:10:07.548Z,43.26
2022-09-06T12:14:08.061Z,44.06
2022-09-06T12:17:45.701Z,43.96
2022-09-06T12:21:49.750Z,43.58
2022-09-06T12:57:09.386Z,44.21
2022-09-06T13:01:07.810Z,44.29
2022-09-06T13:04:21.894Z,43.93
2022-09-06T13:07:59.685Z,44.36
2022-09-06T13:11:31.774Z,44.53
2022-09-06T13:32:24.652Z,44.87
2022-09-06T13:36:13.124Z,45.06
2022-09-06T13:39:39.871Z,45.20
2022-09-06T14:02:04.080Z,45.22
2022-09-06T14:04:53.776Z,45.63
2022-09-06T14:08:38.802Z,45.47
2022-09-06T14:12:21.237Z,45.40
2022-09-06T14:15:13.498Z,45.73
2022-09-06T14:17:56.870Z,45.64
2022-09-06T14:21:14.143Z,45.72
2022-09-06T14:38:34.636Z,45.10
2022-09-06T14:41:37.630Z,45.33
2022-09-06T14:44:58.797Z,45.19
2022-09-06T14:47:57.862Z,45.43
2022-09-06T14:51:41.452Z,45.68
2022-09-06T14:54:45.106Z,45.77
2022-09-06T15:18:45.069Z,45.64
2022-09-06T15:21:39.602Z,45.62
2022-09-06T15:24:31.645Z,45.61
2022-09-06T15:27:20.660Z,45.66
2022-09-06T15:30:52.794Z,45.77
2022-09-06T15:34:06.387Z,45.66
2022-09-06T15:37:20.824Z,45.77
2022-09-06T15:40:10.029Z,45.42
2022-09-06T15:43:30.351Z,45.82
2022-09-06T15:47:14.629Z,45.94
2022-09-06T15:50:56.880Z,45.90
2022-09-06T15:54:45.662Z,45.83
2022-09-06T15:57:56.714Z,46.07
2022-09-06T16:35:57.921Z,47.48
2022-09-06T16:39:01.591Z,47.60
2022-09-06T16:42:53.085Z,47.62
2022-09-06T16:46:24.091Z,47.53
2022-09-06T16:49:12.253Z,47.92
2022-09-06T16:51:52.335Z,47.85
2022-09-06T16:54:37.351Z,48.10
2022-09-06T17:08:39.584Z,48.34
2022-09-06T17:12:04.244Z,48.40
2022-09-06T17:14:48.200Z,48.31
2022-09-06T17:17:44.173Z,48.52
2022-09-06T17:21:27.529Z,48.49
2022-09-06T17:24:09.076Z,48.25
2022-09-06T17:27:24.157Z,48.46
2022-09-06T17:31:15.715Z,48.21
2022-09-06T17:48:33.612Z,48.54
2022-09-06T17:52:07.730Z,48.18
2022-09-06T18:07:58.942Z,48.36
2022-09-06T18:11:50.773Z,47.96
2022-09-06T18:15:19.981Z,48.17
2022-09-06T18:30:54.797Z,48.74
2022-09-06T18:34:07.748Z,49.10
2022-09-06T18:37:57.124Z,49.35
2022-09-06T19:00:51.752Z,50.22
2022-09-06T19:04:53.956Z,50.69
2022-09-06T19:22:37.131Z,51.51
2022-09-06T19:26:49.537Z,51.51
2022-09-06T19:30:42.832Z,51.61
2022-09-06T19:34:44.400Z,51.79
2022-09-06T19:59:12.801Z,52.15
2022-09-06T20:02:58.069Z,52.04
2022-09-06T20:15:02.237Z,52.32
2022-09-06T20:18:59.369Z,52.30
2022-09-06T20:22:51.694Z,52.27
2022-09-06T20:37:56.089Z,52.24
2022-09-06T20:41:59.141Z,52.25
2022-09-06T20:45:03.463Z,52.38
2022-09-06T20:48:04.306Z,52.30
2022-09-06T21:00:38.083Z,52.38
2022-09-06T21:04:40.568Z,52.21
2022-09-06T21:23:40.074Z,51.88
2022-09-06T21:27:13.068Z,51.62
2022-09-06T21:30:43.265Z,51.80
2022-09-06T21:43:19.972Z,51.43
2022-09-06T21:55:29.373Z,51.35
2022-09-06T21:58:55.911Z,51.34
2022-09-06T22:02:23.010Z,51.33
2022-09-06T22:21:12.144Z,51.14
2022-09-06T22:24:53.262Z,51.11
2022-09-06T22:28:35.916Z,50.74
2022-09-06T22:32:16.152Z,51.11
2022-09-06T22:44:43.581Z,50.95
2022-09-06T22:56:40.545Z,51.20
2022-09-06T23:00:20.966Z,51.23
2022-09-06T23:14:40.142Z,51.38
2022-09-06T23:18:26.863Z,51.82
2022-09-06T23:22:36.820Z,51.80
2022-09-06T23:38:12.861Z,52.17
2022-09-06T23:41:55.530Z,52.17
2022-09-06T23:45:02.800Z,52.28
2022-09-06T23:48:35.467Z,52.44
2022-09-06T23:52:05.198Z,52.60
